createdAt,value
2018-04-28T00:01:26.784Z,9.11
2018-04-28T00:03:54.524Z,9.16
2018-04-28T00:06:22.963Z,9.06
2018-04-28T00:08:50.804Z,8.88
2018-04-28T00:11:18.473Z,8.80
2018-04-28T00:13:46.189Z,8.86
2018-04-28T00:16:16.832Z,8.83
2018-04-28T00:18:47.144Z,8.89
2018-04-28T00:21:14.802Z,8.87
2018-04-28T00:23:44.361Z,9.02
2018-04-28T00:26:11.999Z,8.85
2018-04-28T00:28:58.214Z,8.90
2018-04-28T00:31:32.110Z,8.77
2018-04-28T00:34:01.583Z,8.75
2018-04-28T00:37:03.747Z,8.72
2018-04-28T00:39:34.998Z,8.57
2018-04-28T00:42:02.692Z,8.58
2018-04-28T00:44:31.030Z,8.55
2018-04-28T00:46:59.625Z,8.44
2018-04-28T00:49:34.052Z,8.38
2018-04-28T00:52:01.783Z,8.40
2018-04-28T00:54:34.392Z,8.37
2018-04-28T00:57:23.556Z,8.32
2018-04-28T00:59:57.879Z,8.06
2018-04-28T01:02:25.625Z,8.04
2018-04-28T01:04:53.322Z,8.02
2018-04-28T01:07:22.556Z,7.97
2018-04-28T01:10:00.848Z,8.11
2018-04-28T01:12:43.605Z,8.13
2018-04-28T01:15:14.926Z,8.24
2018-04-28T01:18:01.131Z,8.30
2018-04-28T01:20:30.949Z,8.28
2018-04-28T01:23:07.801Z,8.29
2018-04-28T01:25:53.406Z,8.15
2018-04-28T01:28:28.913Z,8.16
2018-04-28T01:31:01.255Z,8.23
2018-04-28T01:33:48.497Z,8.01
2018-04-28T01:36:33.582Z,8.04
2018-04-28T01:39:08.979Z,7.94
2018-04-28T01:41:48.372Z,8.04
2018-04-28T01:44:28.168Z,7.96
2018-04-28T01:46:56.642Z,7.89
2018-04-28T01:52:35.110Z,8.06
2018-04-28T01:55:05.023Z,7.97
2018-04-28T01:57:53.277Z,7.90
2018-04-28T02:00:39.430Z,7.82
2018-04-28T02:03:14.995Z,7.90
2018-04-28T02:05:49.384Z,7.71
2018-04-28T02:08:17.866Z,7.64
2018-04-28T02:10:53.261Z,7.73
2018-04-28T02:13:29.119Z,7.71
2018-04-28T02:16:02.522Z,7.70
2018-04-28T02:21:43.735Z,7.69
2018-04-28T02:24:13.290Z,7.71
2018-04-28T02:26:40.961Z,7.67
2018-04-28T02:29:14.663Z,7.61
2018-04-28T02:31:50.954Z,7.57
2018-04-28T02:34:25.820Z,7.62
2018-04-28T02:36:58.807Z,7.52
2018-04-28T02:39:28.388Z,7.58
2018-04-28T02:42:16.452Z,7.62
2018-04-28T02:44:44.904Z,7.26
2018-04-28T02:47:25.235Z,7.42
2018-04-28T02:50:01.670Z,7.38
2018-04-28T02:52:39.091Z,7.53
2018-04-28T02:58:20.716Z,7.38
2018-04-28T03:03:51.034Z,7.45
2018-04-28T03:06:22.471Z,7.39
2018-04-28T03:08:51.022Z,7.37
2018-04-28T03:11:18.724Z,7.22
2018-04-28T03:13:50.922Z,7.26
2018-04-28T03:19:16.288Z,7.09
2018-04-28T03:21:49.579Z,7.04
2018-04-28T03:24:24.832Z,7.08
2018-04-28T03:27:10.925Z,7.07
2018-04-28T03:29:50.404Z,7.04
2018-04-28T03:32:18.124Z,7.03
2018-04-28T03:34:46.649Z,7.06
2018-04-28T03:37:27.353Z,6.98
2018-04-28T03:40:01.898Z,6.99
2018-04-28T03:42:36.323Z,7.01
2018-04-28T03:45:04.033Z,6.88
2018-04-28T03:47:44.097Z,6.84
2018-04-28T03:50:31.712Z,6.89
2018-04-28T03:53:06.153Z,6.78
2018-04-28T03:55:34.737Z,6.93
2018-04-28T03:58:14.084Z,6.89
2018-04-28T04:00:53.498Z,6.89
2018-04-28T04:03:22.092Z,6.89
2018-04-28T04:06:06.187Z,6.78
2018-04-28T04:08:37.898Z,6.83
2018-04-28T04:11:17.286Z,6.77
2018-04-28T04:13:56.594Z,6.80
2018-04-28T04:16:48.743Z,6.71
2018-04-28T04:19:22.501Z,6.71
2018-04-28T04:24:48.771Z,6.75
2018-04-28T04:27:30.964Z,6.75
2018-04-28T04:30:21.463Z,6.68
2018-04-28T04:33:09.677Z,6.76
2018-04-28T04:35:42.857Z,6.84
2018-04-28T04:38:29.066Z,6.76
2018-04-28T04:41:03.251Z,6.66
2018-04-28T04:43:39.784Z,6.91
2018-04-28T04:49:19.849Z,7.03
2018-04-28T04:51:56.923Z,7.19
2018-04-28T04:54:43.328Z,7.18
2018-04-28T04:57:23.747Z,7.25
2018-04-28T04:59:57.131Z,7.41
2018-04-28T05:02:46.808Z,7.63
2018-04-28T05:08:36.323Z,8.23
2018-04-28T05:11:32.478Z,8.41
2018-04-28T05:17:10.502Z,8.76
2018-04-28T05:19:53.141Z,8.98
2018-04-28T05:25:27.370Z,9.64
2018-04-28T05:28:19.614Z,9.94
2018-04-28T05:30:59.173Z,10.05
2018-04-28T05:33:39.424Z,10.26
2018-04-28T05:36:19.258Z,10.60
2018-04-28T05:39:17.445Z,10.77
2018-04-28T05:41:56.974Z,10.77
2018-04-28T05:44:47.374Z,10.92
2018-04-28T05:47:21.908Z,11.47
2018-04-28T05:50:09.655Z,11.71
2018-04-28T05:52:49.103Z,11.82
2018-04-28T05:55:41.655Z,11.88
2018-04-28T05:58:13.168Z,12.07
2018-04-28T06:00:53.010Z,11.76
2018-04-28T06:06:37.434Z,11.79
2018-04-28T06:09:26.485Z,11.66
2018-04-28T06:15:32.664Z,11.80
2018-04-28T06:18:09.844Z,11.93
2018-04-28T06:20:41.385Z,11.89
2018-04-28T06:23:08.991Z,12.00
2018-04-28T06:25:37.133Z,11.67
2018-04-28T06:28:05.000Z,12.43
2018-04-28T06:30:32.871Z,13.20
2018-04-28T06:33:02.561Z,13.63
2018-04-28T06:35:30.648Z,12.50
2018-04-28T06:37:58.341Z,12.46
2018-04-28T06:40:26.264Z,13.47
2018-04-28T06:42:54.352Z,13.49
2018-04-28T06:45:22.239Z,14.02
2018-04-28T06:47:50.186Z,14.10
2018-04-28T06:50:18.174Z,13.36
2018-04-28T06:52:46.440Z,13.37
2018-04-28T06:55:14.437Z,13.73
2018-04-28T06:57:42.529Z,13.99
2018-04-28T07:00:10.708Z,14.05
2018-04-28T07:02:38.514Z,13.84
2018-04-28T07:05:06.697Z,14.46
2018-04-28T07:07:34.719Z,14.44
2018-04-28T07:10:02.851Z,14.84
2018-04-28T07:12:30.765Z,15.17
2018-04-28T07:14:58.558Z,15.68
2018-04-28T07:17:26.439Z,16.39
2018-04-28T07:19:54.099Z,15.54
2018-04-28T07:22:22.043Z,15.83
2018-04-28T07:24:50.264Z,16.75
2018-04-28T07:27:17.891Z,16.42
2018-04-28T07:29:45.674Z,16.77
2018-04-28T07:32:13.444Z,16.72
2018-04-28T07:34:41.102Z,16.41
2018-04-28T07:37:08.798Z,16.76
2018-04-28T07:39:36.633Z,16.63
2018-04-28T07:42:04.405Z,16.47
2018-04-28T07:44:32.531Z,17.10
2018-04-28T07:47:00.333Z,16.79
2018-04-28T07:49:28.344Z,16.80
2018-04-28T07:51:56.067Z,17.17
2018-04-28T07:54:24.125Z,17.51
2018-04-28T07:56:52.049Z,17.26
2018-04-28T07:59:20.166Z,17.52
2018-04-28T08:01:47.851Z,17.56
2018-04-28T08:04:15.716Z,17.09
2018-04-28T08:06:43.464Z,17.06
2018-04-28T08:09:11.340Z,17.41
2018-04-28T08:11:39.210Z,17.97
2018-04-28T08:14:07.867Z,18.39
2018-04-28T08:16:35.801Z,17.80
2018-04-28T08:19:03.536Z,17.54
2018-04-28T08:21:31.292Z,17.46
2018-04-28T08:23:59.066Z,17.48
2018-04-28T08:26:26.798Z,17.94
2018-04-28T08:28:54.486Z,18.14
2018-04-28T08:31:22.250Z,18.04
2018-04-28T08:33:50.009Z,17.72
2018-04-28T08:36:17.763Z,18.22
2018-04-28T08:38:45.529Z,18.81
2018-04-28T08:41:14.136Z,18.88
2018-04-28T08:43:41.998Z,19.04
2018-04-28T08:46:09.593Z,19.11
2018-04-28T08:48:37.415Z,19.32
2018-04-28T08:51:05.237Z,19.52
2018-04-28T08:53:32.948Z,19.75
2018-04-28T08:56:00.802Z,20.18
2018-04-28T08:58:28.681Z,20.21
2018-04-28T09:01:02.496Z,20.28
2018-04-28T09:03:30.129Z,20.63
2018-04-28T09:05:57.789Z,20.80
2018-04-28T09:08:25.849Z,20.70
2018-04-28T09:10:53.650Z,20.87
2018-04-28T09:13:21.322Z,20.79
2018-04-28T09:15:49.583Z,20.87
2018-04-28T09:18:17.525Z,20.84
2018-04-28T09:20:45.863Z,20.91
2018-04-28T09:23:13.596Z,20.71
2018-04-28T09:25:41.576Z,21.07
2018-04-28T09:28:09.235Z,21.40
2018-04-28T09:30:37.863Z,21.91
2018-04-28T09:33:05.659Z,21.56
2018-04-28T09:35:33.450Z,21.73
2018-04-28T09:38:02.161Z,21.66
2018-04-28T09:40:30.575Z,21.29
2018-04-28T09:42:58.473Z,22.06
2018-04-28T09:45:26.635Z,22.41
2018-04-28T09:47:54.336Z,21.78
2018-04-28T09:50:22.020Z,22.08
2018-04-28T09:52:50.554Z,21.58
2018-04-28T09:55:18.433Z,22.37
2018-04-28T09:57:57.787Z,21.99
2018-04-28T10:00:46.027Z,22.57
2018-04-28T10:03:28.626Z,22.60
2018-04-28T10:05:56.250Z,22.90
2018-04-28T10:08:23.918Z,22.80
2018-04-28T10:10:51.574Z,22.73
2018-04-28T10:13:19.267Z,22.53
2018-04-28T10:15:47.156Z,22.61
2018-04-28T10:18:14.795Z,22.62
2018-04-28T10:20:42.590Z,22.95
2018-04-28T10:23:10.190Z,23.20
2018-04-28T10:25:37.799Z,23.63
2018-04-28T10:28:05.465Z,23.60
2018-04-28T10:30:33.134Z,23.09
2018-04-28T10:33:00.731Z,23.74
2018-04-28T10:35:28.400Z,23.95
2018-04-28T10:37:56.086Z,24.34
2018-04-28T10:40:23.704Z,23.95
2018-04-28T10:42:51.369Z,23.35
2018-04-28T10:45:19.094Z,23.62
2018-04-28T10:47:47.809Z,24.20
2018-04-28T10:50:15.634Z,24.11
2018-04-28T10:52:43.914Z,24.49
2018-04-28T10:55:11.585Z,24.75
2018-04-28T10:57:39.207Z,24.82
2018-04-28T11:00:06.895Z,24.63
2018-04-28T11:02:34.540Z,24.98
2018-04-28T11:05:02.267Z,24.84
2018-04-28T11:07:29.906Z,24.42
2018-04-28T11:09:57.566Z,24.90
2018-04-28T11:12:25.224Z,24.58
2018-04-28T11:14:52.820Z,24.95
2018-04-28T11:17:20.466Z,25.18
2018-04-28T11:19:48.159Z,25.53
2018-04-28T11:22:15.773Z,25.84
2018-04-28T11:24:43.441Z,25.47
2018-04-28T11:27:11.098Z,25.50
2018-04-28T11:29:38.770Z,25.48
2018-04-28T11:32:07.091Z,25.39
2018-04-28T11:34:34.910Z,26.10
2018-04-28T11:37:02.933Z,26.38
2018-04-28T11:39:30.595Z,25.90
2018-04-28T11:41:58.243Z,26.09
2018-04-28T11:44:25.952Z,25.49
2018-04-28T11:46:54.003Z,25.62
2018-04-28T11:49:21.787Z,25.58
2018-04-28T11:51:49.465Z,25.69
2018-04-28T11:54:17.123Z,25.88
2018-04-28T11:56:44.943Z,26.00
2018-04-28T11:59:12.819Z,25.97
2018-04-28T12:01:40.420Z,26.06
2018-04-28T12:04:08.284Z,25.80
2018-04-28T12:06:36.002Z,26.21
2018-04-28T12:09:04.122Z,26.40
2018-04-28T12:11:31.988Z,26.53
2018-04-28T12:13:59.828Z,26.69
2018-04-28T12:16:27.436Z,26.85
2018-04-28T12:18:55.093Z,27.01
2018-04-28T12:21:22.962Z,26.71
2018-04-28T12:23:50.616Z,26.60
2018-04-28T12:26:18.538Z,26.23
2018-04-28T12:28:46.343Z,26.28
2018-04-28T12:31:14.212Z,26.87
2018-04-28T12:33:41.917Z,26.68
2018-04-28T12:36:09.739Z,26.25
2018-04-28T12:38:38.595Z,26.59
2018-04-28T12:41:06.497Z,27.06
2018-04-28T12:43:34.451Z,27.04
2018-04-28T12:46:02.140Z,26.41
2018-04-28T12:48:30.091Z,26.88
2018-04-28T12:50:57.732Z,26.80
2018-04-28T12:53:25.416Z,26.54
2018-04-28T12:55:53.286Z,26.58
2018-04-28T12:58:21.016Z,26.16
2018-04-28T13:00:48.685Z,26.60
2018-04-28T13:03:16.344Z,26.53
2018-04-28T13:05:43.940Z,26.55
2018-04-28T13:08:11.708Z,26.81
2018-04-28T13:10:39.368Z,26.56
2018-04-28T13:13:07.723Z,26.00
2018-04-28T13:15:35.347Z,25.89
2018-04-28T13:18:03.084Z,26.44
2018-04-28T13:20:30.842Z,27.05
2018-04-28T13:22:58.591Z,26.93
2018-04-28T13:25:26.714Z,27.37
2018-04-28T13:27:55.076Z,27.03
2018-04-28T13:30:22.803Z,27.05
2018-04-28T13:32:50.685Z,27.15
2018-04-28T13:35:18.445Z,26.98
2018-04-28T13:37:46.151Z,26.94
2018-04-28T13:40:14.085Z,26.82
2018-04-28T13:42:41.748Z,27.03
2018-04-28T13:45:09.366Z,26.91
2018-04-28T13:47:37.061Z,27.02
2018-04-28T13:50:05.787Z,26.51
2018-04-28T13:52:33.426Z,26.52
2018-04-28T13:55:01.173Z,26.66
2018-04-28T13:57:28.842Z,26.55
2018-04-28T13:59:56.443Z,26.53
2018-04-28T14:02:24.102Z,26.82
2018-04-28T14:04:51.910Z,26.27
2018-04-28T14:07:19.522Z,26.42
2018-04-28T14:09:47.342Z,26.27
2018-04-28T14:12:14.935Z,26.26
2018-04-28T14:14:42.580Z,26.04
2018-04-28T14:17:10.549Z,26.00
2018-04-28T14:19:38.222Z,25.99
2018-04-28T14:22:05.816Z,26.36
2018-04-28T14:24:33.803Z,26.69
2018-04-28T14:27:01.524Z,26.81
2018-04-28T14:29:29.217Z,26.68
2018-04-28T14:31:57.041Z,26.54
2018-04-28T14:34:25.322Z,26.83
2018-04-28T14:36:53.082Z,26.61
2018-04-28T14:39:20.699Z,26.56
2018-04-28T14:41:48.389Z,26.70
2018-04-28T14:44:16.052Z,26.46
2018-04-28T14:46:44.020Z,26.47
2018-04-28T14:49:11.639Z,26.58
2018-04-28T14:51:39.246Z,26.37
2018-04-28T14:54:06.882Z,26.51
2018-04-28T14:56:34.704Z,26.33
2018-04-28T14:59:02.345Z,26.32
2018-04-28T15:01:29.982Z,26.46
2018-04-28T15:03:57.620Z,26.42
2018-04-28T15:06:25.234Z,26.27
2018-04-28T15:08:52.892Z,25.82
2018-04-28T15:11:20.500Z,26.05
2018-04-28T15:13:50.729Z,26.00
2018-04-28T15:16:18.419Z,26.25
2018-04-28T15:18:46.288Z,26.28
2018-04-28T15:21:13.949Z,26.16
2018-04-28T15:23:41.573Z,25.95
2018-04-28T15:26:09.246Z,25.89
2018-04-28T15:28:36.934Z,25.95
2018-04-28T15:31:04.709Z,25.90
2018-04-28T15:33:32.391Z,25.83
2018-04-28T15:36:00.271Z,25.78
2018-04-28T15:38:28.071Z,25.95
2018-04-28T15:40:55.784Z,25.58
2018-04-28T15:43:23.528Z,25.27
2018-04-28T15:45:51.120Z,25.30
2018-04-28T15:48:18.793Z,24.99
2018-04-28T15:50:46.475Z,24.89
2018-04-28T15:53:14.066Z,25.08
2018-04-28T15:55:41.749Z,24.79
2018-04-28T15:58:09.617Z,24.45
2018-04-28T16:00:37.281Z,24.51
2018-04-28T16:03:04.932Z,24.32
2018-04-28T16:05:32.844Z,24.19
2018-04-28T16:08:00.531Z,23.96
2018-04-28T16:10:28.891Z,23.72
2018-04-28T16:12:56.563Z,23.53
2018-04-28T16:15:24.672Z,23.21
2018-04-28T16:17:52.409Z,23.23
2018-04-28T16:20:20.537Z,23.20
2018-04-28T16:22:48.935Z,22.93
2018-04-28T16:25:17.110Z,22.85
2018-04-28T16:27:45.679Z,22.78
2018-04-28T16:30:14.455Z,22.46
2018-04-28T16:32:43.276Z,22.45
2018-04-28T16:35:11.619Z,22.45
2018-04-28T16:37:39.493Z,22.37
2018-04-28T16:40:07.261Z,22.29
2018-04-28T16:42:35.227Z,21.91
2018-04-28T16:45:03.821Z,22.11
2018-04-28T16:47:32.029Z,21.90
2018-04-28T16:49:59.850Z,21.72
2018-04-28T16:52:29.164Z,21.70
2018-04-28T16:54:58.130Z,21.64
2018-04-28T16:57:25.897Z,21.52
2018-04-28T16:59:53.548Z,21.43
2018-04-28T17:02:26.633Z,21.28
2018-04-28T17:04:55.756Z,21.19
2018-04-28T17:07:23.691Z,21.18
2018-04-28T17:09:52.641Z,21.06
2018-04-28T17:12:20.593Z,20.93
2018-04-28T17:14:48.588Z,20.78
2018-04-28T17:17:22.568Z,20.74
2018-04-28T17:19:51.354Z,20.88
2018-04-28T17:22:19.247Z,20.95
2018-04-28T17:24:49.218Z,20.79
2018-04-28T17:27:17.468Z,20.70
2018-04-28T17:29:48.372Z,20.65
2018-04-28T17:32:17.380Z,20.70
2018-04-28T17:34:45.129Z,20.48
2018-04-28T17:37:12.903Z,20.45
2018-04-28T17:39:40.790Z,20.48
2018-04-28T17:42:10.102Z,20.43
2018-04-28T17:44:39.377Z,20.33
2018-04-28T17:47:07.745Z,20.05
2018-04-28T17:49:35.798Z,19.93
2018-04-28T17:52:03.518Z,19.86
2018-04-28T17:54:32.016Z,19.78
2018-04-28T17:56:59.797Z,19.80
2018-04-28T17:59:28.531Z,19.56
2018-04-28T18:01:57.292Z,19.63
2018-04-28T18:04:26.150Z,19.46
2018-04-28T18:06:56.684Z,19.33
2018-04-28T18:09:25.548Z,19.33
2018-04-28T18:11:54.360Z,19.30
2018-04-28T18:14:22.096Z,19.28
2018-04-28T18:16:51.585Z,19.19
2018-04-28T18:19:19.825Z,19.15
2018-04-28T18:21:48.015Z,19.24
2018-04-28T18:24:15.793Z,19.13
2018-04-28T18:26:44.075Z,19.02
2018-04-28T18:29:12.010Z,18.84
2018-04-28T18:31:39.880Z,18.71
2018-04-28T18:34:07.915Z,18.56
2018-04-28T18:36:35.824Z,18.52
2018-04-28T18:39:03.922Z,18.33
2018-04-28T18:41:31.597Z,18.41
2018-04-28T18:43:59.613Z,18.34
2018-04-28T18:46:27.405Z,18.30
2018-04-28T18:48:55.544Z,18.27
2018-04-28T18:51:23.176Z,18.06
2018-04-28T18:53:51.163Z,18.17
2018-04-28T18:56:19.223Z,18.19
2018-04-28T18:58:48.492Z,18.17
2018-04-28T19:01:17.316Z,17.98
2018-04-28T19:03:46.349Z,17.88
2018-04-28T19:06:15.692Z,17.89
2018-04-28T19:08:43.725Z,17.72
2018-04-28T19:11:11.570Z,17.74
2018-04-28T19:13:40.894Z,17.69
2018-04-28T19:16:08.738Z,17.63
2018-04-28T19:18:36.911Z,17.46
2018-04-28T19:21:05.150Z,17.36
2018-04-28T19:23:33.474Z,17.34
2018-04-28T19:26:01.779Z,17.31
2018-04-28T19:28:29.759Z,17.12
2018-04-28T19:30:57.595Z,17.11
2018-04-28T19:33:25.287Z,17.12
2018-04-28T19:35:53.374Z,17.19
2018-04-28T19:38:21.128Z,17.08
2018-04-28T19:40:48.859Z,17.03
2018-04-28T19:43:16.561Z,17.02
2018-04-28T19:45:45.037Z,16.99
2018-04-28T19:48:13.676Z,16.98
2018-04-28T19:50:41.667Z,17.10
2018-04-28T19:53:09.349Z,17.08
2018-04-28T19:55:37.051Z,17.17
2018-04-28T19:58:05.738Z,17.02
2018-04-28T20:00:35.343Z,16.84
2018-04-28T20:03:03.067Z,16.71
2018-04-28T20:05:31.373Z,16.76
2018-04-28T20:07:59.120Z,16.70
2018-04-28T20:10:26.958Z,16.66
2018-04-28T20:12:54.620Z,16.74
2018-04-28T20:15:22.383Z,16.60
2018-04-28T20:17:50.049Z,16.40
2018-04-28T20:20:17.801Z,16.41
2018-04-28T20:22:57.172Z,16.48
2018-04-28T20:25:24.934Z,16.53
2018-04-28T20:27:52.768Z,16.55
2018-04-28T20:30:20.517Z,16.50
2018-04-28T20:32:48.238Z,16.43
2018-04-28T20:35:15.982Z,16.30
2018-04-28T20:37:43.820Z,16.24
2018-04-28T20:40:11.630Z,16.26
2018-04-28T20:42:40.240Z,16.21
2018-04-28T20:45:08.679Z,16.27
2018-04-28T20:47:36.330Z,16.08
2018-04-28T20:50:04.095Z,15.83
2018-04-28T20:52:31.929Z,16.00
2018-04-28T20:54:59.701Z,16.08
2018-04-28T20:57:27.407Z,15.95
2018-04-28T20:59:55.095Z,15.82
2018-04-28T21:02:22.809Z,15.61
2018-04-28T21:04:50.598Z,15.58
2018-04-28T21:07:18.215Z,15.51
2018-04-28T21:09:45.919Z,15.52
2018-04-28T21:12:13.790Z,15.49
2018-04-28T21:14:41.470Z,15.41
2018-04-28T21:17:09.342Z,15.31
2018-04-28T21:19:37.298Z,15.23
2018-04-28T21:22:06.375Z,14.95
2018-04-28T21:24:34.523Z,14.96
2018-04-28T21:27:03.335Z,14.97
2018-04-28T21:29:31.412Z,15.01
2018-04-28T21:31:59.168Z,15.18
2018-04-28T21:34:26.918Z,15.23
2018-04-28T21:36:54.554Z,15.14
2018-04-28T21:39:22.277Z,15.10
2018-04-28T21:41:50.317Z,15.06
2018-04-28T21:44:18.194Z,14.91
2018-04-28T21:46:45.797Z,14.85
2018-04-28T21:49:13.930Z,14.66
2018-04-28T21:51:41.565Z,14.69
2018-04-28T21:54:09.431Z,14.92
2018-04-28T21:56:37.178Z,14.73
2018-04-28T21:59:05.078Z,14.76
2018-04-28T22:01:32.744Z,14.66
2018-04-28T22:04:00.377Z,14.65
2018-04-28T22:06:28.035Z,14.44
2018-04-28T22:08:56.130Z,14.35
2018-04-28T22:11:24.018Z,14.40
2018-04-28T22:13:51.892Z,14.44
2018-04-28T22:16:19.631Z,14.44
2018-04-28T22:18:47.618Z,14.34
2018-04-28T22:21:15.325Z,14.19
2018-04-28T22:23:43.165Z,14.23
2018-04-28T22:26:10.957Z,14.13
2018-04-28T22:28:38.676Z,13.63
2018-04-28T22:31:07.735Z,13.75
2018-04-28T22:33:35.479Z,13.61
2018-04-28T22:36:03.142Z,13.36
2018-04-28T22:38:30.808Z,13.64
2018-04-28T22:40:58.439Z,13.78
2018-04-28T22:43:26.186Z,13.75
2018-04-28T22:45:53.938Z,13.71
2018-04-28T22:48:21.611Z,13.72
2018-04-28T22:50:49.238Z,13.57
2018-04-28T22:53:16.939Z,13.52
2018-04-28T22:55:44.531Z,13.40
2018-04-28T22:58:12.174Z,13.21
2018-04-28T23:00:42.739Z,12.85
2018-04-28T23:03:10.456Z,13.17
2018-04-28T23:05:38.125Z,13.20
2018-04-28T23:08:05.795Z,13.22
2018-04-28T23:10:33.547Z,13.22
2018-04-28T23:13:01.309Z,13.11
2018-04-28T23:15:28.951Z,12.99
2018-04-28T23:17:56.624Z,12.94
2018-04-28T23:20:24.415Z,12.89
2018-04-28T23:22:52.304Z,12.95
2018-04-28T23:25:20.038Z,12.89
2018-04-28T23:27:47.673Z,12.76
2018-04-28T23:30:15.291Z,12.58
2018-04-28T23:32:42.913Z,12.68
2018-04-28T23:35:10.572Z,12.70
2018-04-28T23:37:38.180Z,12.73
2018-04-28T23:40:05.827Z,12.72
2018-04-28T23:42:33.432Z,12.45
2018-04-28T23:45:01.043Z,12.52
2018-04-28T23:47:28.707Z,12.57
2018-04-28T23:49:56.411Z,12.54
2018-04-28T23:52:24.186Z,12.55
2018-04-28T23:54:51.882Z,12.54
2018-04-28T23:57:19.495Z,12.61
2018-04-28T23:59:47.141Z,12.23
